Time;durP1;ratioP1;P1;durP2;ratioP2;P2;SDS_P1;SDS_P2;PMS_P1;PMS_P2;Temp;Humidity;BMP_temperature;BMP_pressure;BME280_temperature;BME280_humidity;BME280_pressure;Samples;Min_cycle;Max_cycle;Signal;HPM_P1;HPM_P2
2022/04/25 00:02:03;;;;;;;3.65;3.05;;;;;;;30.71;52.16;100698.84;5019097;28;70235;-35
2022/04/25 00:04:33;;;;;;;3.53;2.88;;;;;;;30.78;52.30;100711.47;5017554;28;66950;-36
2022/04/25 00:07:04;;;;;;;3.42;2.53;;;;;;;30.42;52.43;100650.81;5019802;28;69429;-35
2022/04/25 00:09:35;;;;;;;2.58;2.38;;;;;;;30.81;53.10;100711.06;5017282;28;66212;-36
2022/04/25 00:12:06;;;;;;;3.20;2.92;;;;;;;30.82;52.75;100710.03;5019889;28;70523;-35
2022/04/25 00:14:36;;;;;;;9.75;4.30;;;;;;;30.96;59.07;100733.22;5029929;28;67295;-37
2022/04/25 00:17:06;;;;;;;13.98;6.55;;;;;;;30.90;62.80;100717.88;5041388;28;69798;-38
2022/04/25 00:19:36;;;;;;;13.00;8.27;;;;;;;31.06;65.64;100738.91;5042148;28;66454;-37
2022/04/25 00:22:07;;;;;;;8.93;7.68;;;;;;;31.04;64.18;100730.22;5042695;28;69110;-37
2022/04/25 00:24:37;;;;;;;14.15;7.80;;;;;;;31.08;67.13;100731.41;5040190;28;65149;-37
2022/04/25 00:27:07;;;;;;;9.85;7.75;;;;;;;31.16;66.51;100733.81;5040251;28;69698;-37
2022/04/25 00:29:37;;;;;;;22.30;11.43;;;;;;;31.21;67.09;100746.69;5040607;28;65589;-38
2022/04/25 00:32:08;;;;;;;18.27;8.27;;;;;;;31.26;67.31;100751.41;5042237;28;70498;-37
2022/04/25 00:34:38;;;;;;;9.55;8.70;;;;;;;31.27;67.08;100761.22;5058226;28;66618;-38
2022/04/25 00:37:09;;;;;;;9.75;8.10;;;;;;;31.21;66.26;100735.84;5039199;28;69732;-38
2022/04/25 00:39:39;;;;;;;12.52;7.55;;;;;;;31.25;67.43;100755.19;5030951;28;66210;-37
2022/04/25 00:42:09;;;;;;;8.70;6.13;;;;;;;31.30;65.05;100739.91;5041791;28;70222;-38
2022/04/25 00:44:41;;;;;;;12.63;5.95;;;;;;;31.42;64.38;100758.97;5042094;28;66649;-34
2022/04/25 00:47:11;;;;;;;7.20;5.90;;;;;;;31.52;65.71;100761.16;5040920;28;70059;-35
2022/04/25 00:49:41;;;;;;;7.18;5.55;;;;;;;31.51;64.77;100752.22;5042552;28;65679;-34
2022/04/25 00:52:12;;;;;;;7.15;4.45;;;;;;;31.60;64.36;100764.38;5041852;28;69565;-33
2022/04/25 00:54:42;;;;;;;5.70;5.20;;;;;;;31.71;64.25;100778.25;5040895;28;66339;-34
2022/04/25 00:57:12;;;;;;;5.55;5.07;;;;;;;31.75;64.24;100771.28;5041639;28;70680;-33
2022/04/25 00:59:45;;;;;;;5.45;5.15;;;;;;;31.69;63.52;100754.06;5041998;28;66409;-34
2022/04/25 01:02:15;;;;;;;7.20;6.00;;;;;;;31.80;63.26;100772.25;5037415;28;70171;-34
2022/04/25 01:04:45;;;;;;;6.07;5.47;;;;;;;31.87;63.03;100774.06;5042469;28;65712;-34
2022/04/25 01:07:15;;;;;;;6.43;4.88;;;;;;;31.77;62.63;100755.63;5040528;28;69293;-35
2022/04/25 01:09:45;;;;;;;5.88;5.13;;;;;;;31.66;62.60;100738.25;5040264;28;67027;-36
2022/04/25 01:12:16;;;;;;;6.05;5.07;;;;;;;31.92;61.88;100766.09;5040628;28;70478;-34
2022/04/25 01:14:46;;;;;;;5.38;4.97;;;;;;;31.99;61.53;100775.78;5041395;28;65708;-34
2022/04/25 01:17:16;;;;;;;5.68;5.13;;;;;;;31.92;61.52;100768.78;5039832;28;70677;-34
2022/04/25 01:19:46;;;;;;;6.03;4.93;;;;;;;32.05;61.17;100785.72;5041709;28;66311;-34
2022/04/25 01:22:21;;;;;;;7.97;5.18;;;;;;;32.11;60.99;100794.00;5041253;28;70342;-34
2022/04/25 01:27:41;;;;;;;4.70;4.35;;;;;;;32.14;60.38;100798.97;5041395;28;69157;-34
2022/04/25 01:30:11;;;;;;;5.00;4.70;;;;;;;32.13;60.19;100792.72;5041704;28;65959;-35
2022/04/25 01:32:42;;;;;;;5.40;4.90;;;;;;;32.18;59.72;100800.13;5041926;28;70429;-33
2022/04/25 01:35:12;;;;;;;5.00;4.60;;;;;;;32.18;59.73;100794.72;5040443;28;66203;-33
2022/04/25 01:37:43;;;;;;;4.85;4.55;;;;;;;32.26;59.68;100816.09;5041633;28;70334;-34
2022/04/25 01:40:13;;;;;;;4.45;4.05;;;;;;;32.28;59.37;100817.53;5041390;28;66065;-34
2022/04/25 01:42:44;;;;;;;5.78;4.38;;;;;;;32.31;59.00;100810.00;5040842;28;70341;-38
2022/04/25 01:45:14;;;;;;;6.37;4.50;;;;;;;32.26;58.90;100803.38;5041668;28;65297;-36
2022/04/25 01:47:46;;;;;;;4.20;4.00;;;;;;;32.36;59.10;100810.13;5041514;28;70452;-33
2022/04/25 01:50:16;;;;;;;4.28;3.97;;;;;;;32.09;58.61;100758.13;5040293;28;65901;-35
2022/04/25 01:52:47;;;;;;;4.40;3.95;;;;;;;32.37;58.72;100804.44;5041518;28;69348;-33
2022/04/25 01:55:18;;;;;;;4.85;4.55;;;;;;;32.42;58.39;100810.00;5041412;28;65745;-32
2022/04/25 01:57:48;;;;;;;4.37;4.07;;;;;;;32.33;58.33;100786.97;5038656;28;69280;-35
2022/04/25 02:00:18;;;;;;;4.40;4.05;;;;;;;32.46;58.40;100796.84;5041878;28;66086;-33
2022/04/25 02:02:48;;;;;;;4.28;3.97;;;;;;;32.47;57.98;100795.78;5041463;28;69903;-34
2022/04/25 02:05:19;;;;;;;5.03;4.28;;;;;;;32.51;57.79;100801.56;5040372;28;65600;-35
2022/04/25 02:07:49;;;;;;;3.92;3.63;;;;;;;32.54;57.86;100801.09;5041232;28;70029;-34
2022/04/25 02:10:19;;;;;;;4.20;3.75;;;;;;;32.56;57.79;100805.22;5041692;28;66520;-33
2022/04/25 02:12:49;;;;;;;5.28;4.65;;;;;;;32.58;57.78;100794.16;5039088;28;70468;-35
2022/04/25 02:15:20;;;;;;;4.57;3.78;;;;;;;32.58;57.92;100789.53;5041331;28;65318;-35
2022/04/25 02:17:50;;;;;;;4.00;3.70;;;;;;;32.62;57.66;100784.47;5040384;28;69368;-34
2022/04/25 02:20:20;;;;;;;5.10;3.67;;;;;;;32.66;57.50;100786.47;5040012;28;66653;-34
2022/04/25 02:22:50;;;;;;;4.45;4.00;;;;;;;32.69;57.37;100788.72;5040925;28;70144;-35
2022/04/25 02:25:20;;;;;;;7.20;4.10;;;;;;;32.49;57.33;100753.75;5039303;28;66511;-34
2022/04/25 02:27:51;;;;;;;4.30;3.90;;;;;;;32.75;56.86;100791.56;5039791;28;69345;-33
2022/04/25 02:30:21;;;;;;;4.05;3.75;;;;;;;32.72;57.56;100784.72;5041466;28;66146;-35
2022/04/25 02:32:51;;;;;;;4.18;3.80;;;;;;;32.65;56.87;100767.69;5040937;28;69283;-35
2022/04/25 02:35:21;;;;;;;4.97;3.78;;;;;;;32.81;56.96;100791.44;5039098;28;66441;-35
2022/04/25 02:37:51;;;;;;;3.90;3.60;;;;;;;32.70;56.89;100771.34;5040721;28;69468;-35
2022/04/25 02:40:21;;;;;;;4.07;3.78;;;;;;;32.86;56.68;100791.56;5040463;28;65355;-33
2022/04/25 02:42:52;;;;;;;4.20;3.90;;;;;;;32.82;56.72;100784.97;5039434;28;70460;-34
2022/04/25 02:45:22;;;;;;;3.83;3.53;;;;;;;32.91;56.35;100797.13;5039501;28;65843;-34
2022/04/25 02:47:53;;;;;;;4.93;4.43;;;;;;;32.93;56.56;100803.16;5040782;28;69867;-35
2022/04/25 02:50:23;;;;;;;4.88;4.53;;;;;;;32.96;56.79;100804.56;5040635;28;65622;-34
2022/04/25 02:52:54;;;;;;;5.47;3.72;;;;;;;32.96;56.90;100801.00;5041004;28;70240;-35
2022/04/25 02:55:25;;;;;;;7.13;3.38;;;;;;;32.97;56.44;100797.25;5040300;28;65786;-34
2022/04/25 02:57:55;;;;;;;3.88;3.55;;;;;;;33.03;56.15;100812.63;5040663;28;69174;-33
2022/04/25 03:00:25;;;;;;;4.00;3.70;;;;;;;32.97;56.19;100797.25;5038762;28;64230;-34
2022/04/25 03:02:55;;;;;;;4.07;3.50;;;;;;;32.93;55.98;100789.56;5039984;28;69956;-34
2022/04/25 03:05:26;;;;;;;5.00;3.70;;;;;;;33.09;56.11;100811.66;5040483;28;66166;-34
2022/04/25 03:07:56;;;;;;;4.82;4.43;;;;;;;33.08;56.12;100810.03;5040580;28;70384;-35
2022/04/25 03:10:26;;;;;;;4.20;3.90;;;;;;;33.09;56.06;100806.22;5040300;28;65950;-34
2022/04/25 03:12:56;;;;;;;4.30;3.90;;;;;;;33.10;55.89;100807.91;5041077;28;69706;-34
2022/04/25 03:15:27;;;;;;;4.20;3.90;;;;;;;33.11;56.11;100823.13;5040379;28;66057;-34
2022/04/25 03:17:57;;;;;;;6.57;3.60;;;;;;;33.08;55.84;100812.75;5037266;28;69945;-35
2022/04/25 03:20:28;;;;;;;4.72;3.05;;;;;;;33.11;55.80;100812.28;5033804;28;65856;-35
2022/04/25 03:22:59;;;;;;;4.10;3.78;;;;;;;33.11;55.71;100804.94;5036857;28;71424;-35
2022/04/25 03:25:29;;;;;;;4.45;3.72;;;;;;;33.01;55.84;100790.28;5039601;28;66261;-34
2022/04/25 03:28:00;;;;;;;4.28;3.97;;;;;;;33.16;55.67;100801.53;5040851;28;70447;-34
2022/04/25 03:30:30;;;;;;;3.92;3.63;;;;;;;33.13;55.63;100791.13;5040691;28;65784;-35
2022/04/25 03:33:01;;;;;;;6.55;4.07;;;;;;;33.23;55.66;100807.63;5039022;28;70066;-35
2022/04/25 03:35:32;;;;;;;4.30;3.92;;;;;;;33.18;56.04;100793.94;5034226;28;66095;-34
2022/04/25 03:38:05;;;;;;;4.60;3.65;;;;;;;33.25;55.40;100799.25;5034764;28;70336;-35
2022/04/25 03:40:37;;;;;;;5.65;4.00;;;;;;;33.28;55.37;100805.03;5038636;28;66839;-33
2022/04/25 03:43:07;;;;;;;3.70;3.40;;;;;;;33.26;55.50;100790.84;5039849;28;69990;-34
2022/04/25 03:45:40;;;;;;;6.63;4.43;;;;;;;33.33;55.27;100796.19;5054444;28;66146;-35
2022/04/25 03:48:11;;;;;;;5.82;3.28;;;;;;;33.33;55.38;100786.13;5041300;28;69411;-34
2022/04/25 03:50:41;;;;;;;3.80;3.50;;;;;;;33.32;55.45;100789.91;5042762;28;66375;-35
2022/04/25 03:53:13;;;;;;;4.40;3.42;;;;;;;33.35;55.30;100789.44;5043005;28;70967;-34
2022/04/25 03:58:32;;;;;;;6.32;3.72;;;;;;;33.34;54.99;100782.31;5025813;28;69809;-34
2022/04/25 04:01:02;;;;;;;3.78;3.33;;;;;;;33.38;55.12;100783.50;5043201;28;66587;-35
2022/04/25 04:03:35;;;;;;;3.50;3.22;;;;;;;32.68;55.38;100674.88;5043614;28;70582;-35
2022/04/25 04:06:07;;;;;;;3.72;3.42;;;;;;;33.38;55.08;100782.69;5041979;28;66043;-34
2022/04/25 04:08:38;;;;;;;3.97;3.67;;;;;;;33.32;55.29;100768.16;5042563;28;69967;-34
2022/04/25 04:11:08;;;;;;;4.13;3.50;;;;;;;33.42;55.04;100783.03;5042905;28;65525;-34
2022/04/25 04:13:38;;;;;;;4.40;4.00;;;;;;;33.41;54.80;100775.94;5042236;28;69434;-34
2022/04/25 04:16:08;;;;;;;4.18;3.78;;;;;;;33.32;55.16;100761.88;5043001;28;65203;-34
2022/04/25 04:18:42;;;;;;;3.97;3.60;;;;;;;33.48;54.84;100787.50;5043275;28;69507;-34
2022/04/25 04:21:13;;;;;;;4.55;4.05;;;;;;;33.51;54.70;100784.31;5042239;28;66317;-33
2022/04/25 04:23:43;;;;;;;4.50;4.20;;;;;;;33.52;54.75;100781.38;5043170;28;69164;-33
2022/04/25 04:26:13;;;;;;;7.82;4.25;;;;;;;33.55;54.63;100778.19;5042018;28;66570;-34
2022/04/25 04:28:43;;;;;;;4.10;3.70;;;;;;;33.57;54.74;100786.94;5040514;28;70174;-34
2022/04/25 04:31:13;;;;;;;4.70;4.30;;;;;;;33.15;54.68;100713.72;5040691;28;65022;-37
2022/04/25 04:33:44;;;;;;;4.20;3.90;;;;;;;33.60;54.39;100780.19;5042734;28;69865;-35
2022/04/25 04:36:22;;;;;;;3.97;3.78;;;;;;;33.60;54.47;100785.63;5042878;28;66868;-36
2022/04/25 04:38:52;;;;;;;4.53;4.13;;;;;;;33.52;54.51;100766.94;5042888;28;70049;-34
2022/04/25 04:41:22;;;;;;;4.18;3.88;;;;;;;33.63;54.32;100785.13;5042174;28;66081;-35
2022/04/25 04:43:55;;;;;;;4.95;4.25;;;;;;;33.63;54.50;100779.69;5042353;28;70422;-38
2022/04/25 04:46:25;;;;;;;4.05;3.80;;;;;;;33.64;54.52;100778.63;5041875;28;65762;-35
2022/04/25 04:48:56;;;;;;;4.28;3.88;;;;;;;33.66;54.33;100762.06;5041634;28;69655;-34
2022/04/25 04:51:26;;;;;;;6.25;3.60;;;;;;;33.65;54.32;100761.22;5043227;28;66636;-34
2022/04/25 04:54:00;;;;;;;6.60;4.32;;;;;;;33.61;54.42;100746.47;5042657;28;70242;-36
2022/04/25 04:56:30;;;;;;;4.10;3.80;;;;;;;33.64;54.25;100753.31;5042095;28;66393;-34
2022/04/25 04:59:00;;;;;;;4.75;3.92;;;;;;;33.63;54.43;100747.06;5041481;28;70065;-35
2022/04/25 05:01:30;;;;;;;4.05;3.75;;;;;;;33.65;54.48;100728.56;5043167;28;66111;-35
2022/04/25 05:04:01;;;;;;;5.97;4.50;;;;;;;33.69;54.19;100729.75;5041876;28;69393;-36
2022/04/25 05:06:31;;;;;;;4.30;4.00;;;;;;;33.68;54.33;100716.38;5043033;28;66594;-34
2022/04/25 05:09:01;;;;;;;3.83;3.53;;;;;;;33.65;54.26;100701.38;5042295;28;70097;-35
2022/04/25 05:11:31;;;;;;;4.25;3.85;;;;;;;33.68;54.25;100698.16;5042205;28;66468;-35
2022/04/25 05:14:07;;;;;;;5.28;3.95;;;;;;;33.77;53.79;100704.88;5042377;28;70021;-34
2022/04/25 05:16:37;;;;;;;4.00;3.70;;;;;;;33.77;54.08;100699.44;5041945;28;65711;-35
2022/04/25 05:19:08;;;;;;;4.35;3.95;;;;;;;33.79;54.24;100697.31;5041182;28;70296;-35
2022/04/25 05:21:39;;;;;;;4.97;3.70;;;;;;;33.83;54.01;100696.81;5042744;28;66282;-35
2022/04/25 05:24:09;;;;;;;3.90;3.60;;;;;;;33.83;54.04;100686.75;5041312;28;70137;-35
2022/04/25 05:26:40;;;;;;;4.40;3.88;;;;;;;33.81;54.09;100676.09;5042355;28;65984;-36
2022/04/25 05:29:14;;;;;;;3.45;3.10;;;;;;;33.85;53.92;100683.78;5042295;28;69816;-35
2022/04/25 05:31:44;;;;;;;4.00;3.63;;;;;;;33.89;54.01;100679.50;5040943;28;65500;-34
2022/04/25 05:34:22;;;;;;;3.50;3.20;;;;;;;33.88;53.96;100666.97;5042327;28;70007;-35
2022/04/25 05:36:52;;;;;;;3.40;3.20;;;;;;;33.95;53.96;100670.34;5042623;28;66047;-36
2022/04/25 05:39:22;;;;;;;3.83;3.60;;;;;;;33.98;53.88;100672.59;5041788;28;69974;-35
2022/04/25 05:41:53;;;;;;;3.95;3.65;;;;;;;34.00;53.91;100670.44;5041967;28;66204;-34
2022/04/25 05:44:23;;;;;;;3.33;3.10;;;;;;;34.02;53.59;100662.88;5041577;28;69208;-35
2022/04/25 05:46:56;;;;;;;3.42;3.20;;;;;;;34.06;53.59;100644.16;5042253;28;66200;-35
2022/04/25 05:52:15;;;;;;;6.65;3.53;;;;;;;33.95;53.85;100618.66;5039293;28;66671;-34
2022/04/25 05:54:46;;;;;;;3.67;3.37;;;;;;;34.01;53.36;100621.19;5041161;28;70338;-34
2022/04/25 05:57:16;;;;;;;3.20;2.92;;;;;;;33.84;53.28;100584.19;5041118;28;66195;-36
2022/04/25 05:59:46;;;;;;;3.05;2.85;;;;;;;34.15;53.84;100629.06;5041170;28;69289;-37
2022/04/25 06:02:17;;;;;;;3.28;3.08;;;;;;;34.09;53.65;100602.84;5041801;28;66550;-35
2022/04/25 06:04:47;;;;;;;3.20;2.90;;;;;;;34.13;53.74;100602.09;5040913;28;69589;-33
2022/04/25 06:07:17;;;;;;;3.67;3.38;;;;;;;34.16;53.68;100598.88;5041629;28;66552;-34
2022/04/25 06:09:47;;;;;;;3.10;2.72;;;;;;;34.16;53.56;100593.44;5040514;28;70166;-35
2022/04/25 06:12:17;;;;;;;6.22;3.10;;;;;;;34.15;53.62;100580.88;5041393;28;66721;-34
2022/04/25 06:14:48;;;;;;;3.22;2.92;;;;;;;34.22;53.87;100576.09;5041497;28;69590;-35
2022/04/25 06:17:18;;;;;;;3.20;2.90;;;;;;;34.20;53.09;100572.78;5041787;28;65582;-34
2022/04/25 06:19:49;;;;;;;3.17;2.97;;;;;;;34.31;53.29;100568.31;5040194;28;69992;-34
2022/04/25 06:22:20;;;;;;;2.83;2.63;;;;;;;34.30;53.26;100554.94;5041599;28;66491;-35
2022/04/25 06:24:50;;;;;;;3.22;2.97;;;;;;;34.37;53.50;100561.03;5041260;28;69125;-36
2022/04/25 06:27:21;;;;;;;2.85;2.65;;;;;;;34.35;53.11;100546.84;5040540;28;65623;-35
2022/04/25 06:29:52;;;;;;;2.88;2.67;;;;;;;34.41;53.14;100551.31;5041472;28;69176;-35
2022/04/25 06:32:23;;;;;;;3.95;2.80;;;;;;;34.47;53.39;100545.66;5040670;28;66078;-35
2022/04/25 06:34:53;;;;;;;2.78;2.38;;;;;;;34.51;52.92;100551.41;5039184;28;69536;-35
2022/04/25 06:37:24;;;;;;;3.42;2.67;;;;;;;34.52;53.15;100542.19;5040141;28;66502;-35
2022/04/25 06:39:54;;;;;;;3.00;2.70;;;;;;;34.59;53.09;100537.38;5040776;28;70466;-37
2022/04/25 06:42:25;;;;;;;3.08;2.85;;;;;;;34.62;52.98;100531.44;5021359;28;66160;-36
2022/04/25 06:44:56;;;;;;;3.03;2.75;;;;;;;34.53;52.83;100511.16;5040949;28;69845;-35
2022/04/25 06:47:26;;;;;;;3.33;2.75;;;;;;;34.65;52.95;100530.91;5040599;28;65343;-35
2022/04/25 06:49:56;;;;;;;2.65;2.45;;;;;;;34.71;53.07;100512.72;5039739;28;70860;-35
2022/04/25 06:52:27;;;;;;;3.47;2.83;;;;;;;34.70;52.63;100505.66;5040665;28;65760;-34
2022/04/25 06:54:58;;;;;;;3.22;2.80;;;;;;;34.78;52.69;100501.66;5040645;28;69780;-34
2022/04/25 06:57:30;;;;;;;2.70;2.50;;;;;;;34.83;52.49;100497.09;5038387;28;66680;-36
2022/04/25 07:00:03;;;;;;;3.47;2.38;;;;;;;34.83;52.55;100477.19;5021820;28;70054;-36
2022/04/25 07:02:53;;;;;;;;;;;;;;;34.63;52.96;100484.06;5038381;28;66272;-36
2022/04/25 07:05:24;;;;;;;4.57;2.60;;;;;;;34.96;52.62;100487.66;5039707;28;69713;-35
2022/04/25 07:07:56;;;;;;;2.60;2.40;;;;;;;34.70;52.24;100443.81;5039369;28;66047;-34
2022/04/25 07:10:26;;;;;;;3.33;2.63;;;;;;;35.04;52.56;100476.28;5039371;28;70474;-36
2022/04/25 07:12:57;;;;;;;2.70;2.50;;;;;;;35.09;52.00;100481.81;5040902;28;66575;-36
2022/04/25 07:15:27;;;;;;;4.05;2.55;;;;;;;35.17;52.21;100490.63;5039231;28;70006;-34
2022/04/25 07:17:59;;;;;;;3.80;2.33;;;;;;;34.91;51.86;100430.41;5038419;28;65291;-35
2022/04/25 07:20:29;;;;;;;2.47;2.30;;;;;;;35.24;52.11;100483.84;5040574;28;69395;-34
2022/04/25 07:28:49;;;;;;;2.42;2.22;;;;;;;35.35;51.99;100469.25;5036673;28;66056;-35
2022/04/25 07:31:20;;;;;;;2.40;2.20;;;;;;;35.35;51.89;100465.66;5040885;28;69897;-35
2022/04/25 07:33:51;;;;;;;4.15;2.53;;;;;;;35.43;51.78;100465.19;5039890;28;65140;-36
2022/04/25 07:36:22;;;;;;;4.15;2.45;;;;;;;35.47;51.92;100466.31;5040172;28;70068;-35
2022/04/25 07:38:54;;;;;;;2.40;2.20;;;;;;;35.40;51.56;100437.63;5040412;28;65719;-35
2022/04/25 07:41:27;;;;;;;2.30;2.10;;;;;;;35.56;51.47;100455.78;5039211;28;70362;-35
2022/04/25 07:43:58;;;;;;;2.55;2.35;;;;;;;35.50;51.83;100435.78;5037304;28;66201;-35
2022/04/25 07:46:28;;;;;;;2.47;2.23;;;;;;;35.50;51.06;100433.06;5038687;28;69972;-34
2022/04/25 07:48:59;;;;;;;2.42;2.22;;;;;;;35.67;51.54;100440.31;5038999;28;66324;-36
2022/04/25 07:51:30;;;;;;;3.80;2.60;;;;;;;35.48;51.39;100407.94;5038522;28;69408;-36
2022/04/25 07:54:00;;;;;;;2.83;2.50;;;;;;;35.70;51.59;100439.78;5036373;28;66991;-36
2022/04/25 07:56:32;;;;;;;5.13;2.80;;;;;;;35.78;51.06;100439.28;5039622;28;69444;-37
2022/04/25 07:59:02;;;;;;;;;;;;;;;35.52;51.48;100439.09;5038737;28;65760;-36
2022/04/25 08:01:33;;;;;;;3.47;2.83;;;;;;;35.80;51.46;100426.16;5038674;28;69140;-36
2022/04/25 08:04:05;;;;;;;3.22;2.75;;;;;;;35.84;50.76;100419.09;5038903;28;65430;-35
2022/04/25 08:06:35;;;;;;;2.90;2.58;;;;;;;35.55;51.14;100370.38;5040384;28;69813;-35
2022/04/25 08:09:05;;;;;;;2.58;2.38;;;;;;;35.88;51.09;100412.00;5037961;28;66590;-35
2022/04/25 08:11:36;;;;;;;2.63;2.30;;;;;;;35.88;51.03;100401.09;5040065;28;69358;-35
2022/04/25 08:19:43;;;;;;;3.95;2.22;;;;;;;35.91;50.57;100384.22;5018923;28;65254;-35
2022/04/25 08:22:14;;;;;;;2.42;2.22;;;;;;;35.95;50.83;100379.84;5034161;28;69081;-35
2022/04/25 08:24:44;;;;;;;3.45;2.35;;;;;;;35.96;50.47;100383.41;5017872;28;66156;-36
2022/04/25 08:27:14;;;;;;;2.95;2.75;;;;;;;35.94;50.30;100366.44;5018297;28;70078;-36
2022/04/25 08:29:44;;;;;;;4.40;2.42;;;;;;;36.03;50.83;100371.16;5019419;28;66673;-35
2022/04/25 08:32:15;;;;;;;2.57;2.37;;;;;;;35.99;50.66;100372.75;5019845;28;70011;-37
2022/04/25 08:34:46;;;;;;;3.20;2.72;;;;;;;36.05;50.37;100372.78;5021335;28;66512;-35
2022/04/25 08:37:16;;;;;;;3.22;2.45;;;;;;;36.06;50.67;100371.75;5021931;28;69073;-36
2022/04/25 08:39:46;;;;;;;2.67;2.47;;;;;;;36.06;49.95;100369.00;5021303;28;66047;-35
2022/04/25 08:42:16;;;;;;;2.95;2.10;;;;;;;36.06;50.21;100369.81;5021931;28;69851;-36
2022/04/25 08:45:07;;;;;;;2.65;2.45;;;;;;;36.06;49.85;100369.00;5022089;28;66159;-36
2022/04/25 08:47:58;;;;;;;3.33;2.42;;;;;;;36.00;50.69;100366.22;5020965;28;69488;-35
2022/04/25 08:50:30;;;;;;;2.30;2.10;;;;;;;36.09;50.24;100368.47;5021638;28;64965;-34
2022/04/25 08:53:00;;;;;;;2.35;2.15;;;;;;;35.89;50.17;100339.97;5037345;28;70959;-35
2022/04/25 08:55:30;;;;;;;2.60;2.15;;;;;;;36.03;50.56;100371.16;5041285;28;66502;-35
2022/04/25 08:58:03;;;;;;;2.50;2.30;;;;;;;35.40;49.92;100274.81;5042753;28;70358;-34
2022/04/25 09:00:33;;;;;;;2.67;2.28;;;;;;;36.02;50.19;100374.97;5041363;28;66654;-36
2022/04/25 09:03:03;;;;;;;2.30;1.83;;;;;;;36.12;50.06;100389.78;5043170;28;70706;-36
2022/04/25 09:05:37;;;;;;;4.55;2.10;;;;;;;35.71;50.31;100318.63;5042594;28;64993;-36
2022/04/25 09:08:07;;;;;;;2.60;2.22;;;;;;;35.81;50.51;100337.78;5042878;28;69546;-37
2022/04/25 09:10:40;;;;;;;3.83;2.25;;;;;;;36.12;50.09;100376.94;5042542;28;65717;-34
2022/04/25 09:13:11;;;;;;;2.70;2.15;;;;;;;36.11;50.73;100377.19;5041340;28;70608;-35
2022/04/25 09:15:42;;;;;;;5.60;1.92;;;;;;;36.11;50.12;100369.00;5042130;28;66788;-36
2022/04/25 09:18:13;;;;;;;2.57;2.10;;;;;;;36.09;50.65;100363.00;5042569;28;69269;-36
2022/04/25 09:20:45;;;;;;;7.07;1.90;;;;;;;36.08;50.29;100356.72;5039475;28;66554;-35
2022/04/25 09:23:24;;;;;;;2.20;2.00;;;;;;;36.10;50.39;100353.72;5042513;28;70262;-35
2022/04/25 09:26:27;;;;;;;2.38;1.70;;;;;;;35.95;50.20;100351.75;5041381;28;66489;-36
2022/04/25 09:28:57;;;;;;;3.75;1.85;;;;;;;36.09;50.67;100373.94;5041693;28;69134;-36
2022/04/25 09:31:28;;;;;;;4.28;1.98;;;;;;;36.08;50.22;100375.84;5040370;28;66317;-36
2022/04/25 09:34:15;;;;;;;3.50;2.25;;;;;;;35.70;50.85;100347.00;5039984;28;69208;-35
2022/04/25 09:36:47;;;;;;;2.42;1.50;;;;;;;36.09;50.53;100412.16;5040611;28;66271;-36
2022/04/25 09:39:32;;;;;;;5.13;1.70;;;;;;;35.94;50.36;100394.59;5042589;28;69652;-35
2022/04/25 09:42:04;;;;;;;2.65;1.33;;;;;;;36.06;50.81;100408.03;5030983;28;66232;-36
2022/04/25 09:44:55;;;;;;;3.15;1.80;;;;;;;35.98;50.86;100405.78;5027898;28;70177;-35
2022/04/25 09:47:31;;;;;;;1.70;1.55;;;;;;;36.06;51.00;100426.34;5025187;28;65514;-36
2022/04/25 09:50:19;;;;;;;2.95;2.17;;;;;;;35.84;50.74;100405.47;5023141;28;69495;-35
2022/04/25 09:53:10;;;;;;;3.40;2.05;;;;;;;36.00;50.62;100420.81;5027342;28;65453;-35
2022/04/25 09:55:41;;;;;;;1.98;1.50;;;;;;;35.96;51.13;100397.84;5035607;28;69833;-35
2022/04/25 09:58:22;;;;;;;4.20;1.83;;;;;;;35.91;50.97;100386.94;5040081;28;66066;-35
2022/04/25 10:00:53;;;;;;;2.03;1.70;;;;;;;35.95;51.10;100404.41;5040681;28;70147;-35
2022/04/25 10:03:37;;;;;;;5.95;2.40;;;;;;;35.48;50.77;100342.50;5040919;28;66937;-36
2022/04/25 10:06:08;;;;;;;1.90;1.80;;;;;;;35.89;50.86;100410.94;5038710;28;70598;-36
2022/04/25 10:08:39;;;;;;;1.73;1.23;;;;;;;35.87;50.96;100420.47;5040875;28;66813;-35
2022/04/25 10:11:12;;;;;;;3.22;1.50;;;;;;;35.94;51.41;100438.28;5039993;28;70526;-35
2022/04/25 10:13:43;;;;;;;2.00;1.80;;;;;;;35.92;50.99;100434.97;5039994;28;43031;-35
2022/04/25 10:16:20;;;;;;;1.88;1.77;;;;;;;35.92;51.63;100445.88;5037843;28;69887;-36
2022/04/25 10:18:51;;;;;;;2.25;1.80;;;;;;;35.91;51.62;100449.72;5040547;28;66437;-36
2022/04/25 10:21:26;;;;;;;2.85;1.75;;;;;;;35.89;51.08;100435.50;5041196;28;69055;-36
2022/04/25 10:23:57;;;;;;;2.33;1.48;;;;;;;35.89;51.25;100453.78;5021749;28;66280;-35
2022/04/25 10:26:28;;;;;;;;;;;;;;;35.55;52.17;100452.19;5041712;28;70088;-34
2022/04/25 10:29:07;;;;;;;1.95;1.50;;;;;;;35.84;52.02;100449.13;5040726;28;66545;-36
2022/04/25 10:31:44;;;;;;;1.83;1.73;;;;;;;35.86;51.63;100454.28;5039741;28;70268;-36
2022/04/25 10:34:16;;;;;;;1.70;1.50;;;;;;;35.83;51.89;100441.19;5036976;28;65805;-37
2022/04/25 10:36:47;;;;;;;1.83;1.67;;;;;;;35.80;51.99;100448.00;5027843;28;69206;-38
2022/04/25 10:39:18;;;;;;;;;;;;;;;35.48;52.15;100442.59;5044934;28;65817;-37
2022/04/25 10:44:46;;;;;;;5.45;1.50;;;;;;;35.73;51.80;100447.44;5040704;28;65718;-37
2022/04/25 10:47:18;;;;;;;7.45;5.07;;;;;;;35.71;51.58;100450.41;5037287;28;70070;-38
2022/04/25 10:49:56;;;;;;;15.55;9.93;;;;;;;35.68;51.54;100447.38;5027729;28;66239;-38
2022/04/25 10:52:42;;;;;;;13.60;11.25;;;;;;;35.64;51.51;100449.00;5023427;28;69332;-39
2022/04/25 10:55:19;;;;;;;9.93;8.82;;;;;;;35.36;52.17;100410.06;5020525;28;66367;-37
2022/04/25 10:58:02;;;;;;;6.70;6.07;;;;;;;35.56;51.81;100453.88;5019348;28;70299;-37
2022/04/25 11:00:42;;;;;;;13.25;7.82;;;;;;;35.58;52.04;100446.25;5020054;28;66504;-38
2022/04/25 11:03:23;;;;;;;16.42;8.93;;;;;;;35.50;52.76;100422.16;5006145;28;69092;-39
2022/04/25 11:05:58;;;;;;;21.08;8.25;;;;;;;35.36;52.57;100412.78;5030392;28;66234;-39
2022/04/25 11:08:34;;;;;;;9.07;7.97;;;;;;;35.52;52.71;100444.53;5025689;28;69522;-36
2022/04/25 11:11:08;;;;;;;9.20;5.63;;;;;;;35.21;52.97;100409.94;5031914;28;66554;-37
2022/04/25 11:13:50;;;;;;;10.05;5.65;;;;;;;35.46;53.38;100442.84;5036154;28;70387;-38
2022/04/25 11:16:25;;;;;;;5.90;4.90;;;;;;;35.31;53.62;100426.38;5030057;28;65187;-37
2022/04/25 11:19:12;;;;;;;8.80;8.02;;;;;;;35.12;54.57;100448.59;5037259;28;70026;-36
2022/04/25 11:21:55;;;;;;;6.85;5.40;;;;;;;34.87;56.10;100431.97;5028270;28;66849;-38
2022/04/25 11:24:30;;;;;;;5.93;4.70;;;;;;;34.92;55.78;100454.66;5028701;28;69471;-38
2022/04/25 11:27:03;;;;;;;4.55;4.20;;;;;;;34.84;56.18;100457.03;5044427;28;65879;-36
2022/04/25 11:29:44;;;;;;;9.60;4.57;;;;;;;34.36;56.96;100398.75;5038304;28;69582;-37
2022/04/25 11:32:26;;;;;;;8.77;4.72;;;;;;;34.73;57.18;100472.44;5037615;28;66069;-37
2022/04/25 11:35:00;;;;;;;5.80;4.18;;;;;;;34.77;57.00;100475.47;5040129;28;70086;-36
2022/04/25 11:37:33;;;;;;;4.47;4.18;;;;;;;34.77;57.39;100487.22;5037539;28;65101;-35
2022/04/25 11:40:07;;;;;;;4.63;4.20;;;;;;;34.31;57.58;100412.31;5035196;28;69784;-36
2022/04/25 11:42:37;;;;;;;5.60;4.22;;;;;;;34.69;57.70;100487.66;5038236;28;66174;-37
2022/04/25 11:45:08;;;;;;;7.18;4.50;;;;;;;34.57;58.12;100487.78;5030071;28;70148;-36
2022/04/25 11:47:39;;;;;;;5.32;4.93;;;;;;;34.64;57.77;100502.03;5031993;28;66781;-36
2022/04/25 11:50:13;;;;;;;6.47;4.60;;;;;;;34.49;58.50;100501.81;5030001;28;69795;-39
2022/04/25 11:52:56;;;;;;;9.68;5.38;;;;;;;33.95;59.14;100425.44;5032083;28;65180;-38
2022/04/25 11:55:38;;;;;;;6.00;5.47;;;;;;;34.26;59.53;100505.63;5033536;28;69258;-37
2022/04/25 11:58:08;;;;;;;5.90;5.30;;;;;;;34.19;59.57;100496.84;5050304;28;65894;-37
2022/04/25 12:00:43;;;;;;;4.78;3.85;;;;;;;34.07;59.91;100491.50;5047887;28;69289;-39
2022/04/25 12:03:23;;;;;;;3.72;3.30;;;;;;;34.03;60.11;100502.03;5035235;28;66080;-38
2022/04/25 12:06:12;;;;;;;3.97;3.67;;;;;;;33.85;60.63;100485.16;5003456;28;70862;-37
2022/04/25 12:17:45;;;;;;;5.57;3.85;;;;;;;33.65;61.93;100505.53;5032916;28;68183;-38
2022/04/25 12:20:19;;;;;;;7.15;4.13;;;;;;;33.74;61.92;100523.13;5023083;28;66552;-36
2022/04/25 12:22:56;;;;;;;5.80;3.85;;;;;;;33.84;61.69;100532.50;5050616;28;70210;-34